Time;durP1;ratioP1;P1;durP2;ratioP2;P2;SDS_P1;SDS_P2;PMS_P1;PMS_P2;Temp;Humidity;BMP_temperature;BMP_pressure;BME280_temperature;BME280_humidity;BME280_pressure;Samples;Min_cycle;Max_cycle;Signal;HPM_P1;HPM_P2
2023/01/05 00:04:46;;;;;;;1.70;1.70;;;12.10;99.90;;;;;;10387115;28;20605;-82
2023/01/05 00:09:49;;;;;;;2.10;1.90;;;12.10;99.90;;;;;;10385436;28;20218;-82
2023/01/05 00:25:44;;;;;;;1.70;1.60;;;12.10;99.90;;;;;;10360621;28;20663;-82
2023/01/05 00:30:47;;;;;;;1.50;1.50;;;12.10;99.90;;;;;;10379917;28;20694;-82
2023/01/05 00:35:49;;;;;;;1.80;1.70;;;12.10;99.90;;;;;;10378487;28;20206;-82
2023/01/05 00:40:54;;;;;;;1.80;1.77;;;12.10;99.90;;;;;;10383515;28;20218;-82
2023/01/05 00:45:56;;;;;;;1.80;1.70;;;12.20;99.90;;;;;;10383970;28;20203;-82
2023/01/05 00:50:58;;;;;;;1.97;1.87;;;12.30;99.90;;;;;;10390038;28;20600;-83
2023/01/05 00:56:02;;;;;;;1.80;1.70;;;12.20;99.90;;;;;;10381458;28;20245;-80
2023/01/05 01:01:09;;;;;;;1.80;1.80;;;12.30;99.90;;;;;;10366226;28;20686;-79
2023/01/05 01:06:12;;;;;;;1.77;1.70;;;12.30;99.90;;;;;;10335127;28;20202;-80
2023/01/05 01:11:16;;;;;;;2.20;2.00;;;12.40;99.90;;;;;;10354234;28;20215;-80
2023/01/05 01:16:18;;;;;;;1.77;1.70;;;12.40;99.90;;;;;;10362140;28;20204;-79
2023/01/05 01:21:20;;;;;;;1.60;1.60;;;12.40;99.90;;;;;;10371822;28;20233;-79
2023/01/05 01:26:23;;;;;;;1.67;1.67;;;12.50;99.90;;;;;;10370093;28;20254;-80
2023/01/05 01:31:25;;;;;;;1.80;1.70;;;12.50;99.90;;;;;;10371314;28;20309;-81
2023/01/05 01:36:28;;;;;;;1.70;1.60;;;12.50;99.90;;;;;;10373647;28;20194;-82
2023/01/05 01:41:31;;;;;;;1.80;1.70;;;12.50;99.90;;;;;;10372035;28;20306;-82
2023/01/05 01:46:35;;;;;;;1.67;1.57;;;12.50;99.90;;;;;;10384073;28;20198;-81
2023/01/05 01:51:43;;;;;;;1.73;1.70;;;12.50;99.90;;;;;;10375338;28;20237;-81
2023/01/05 01:56:52;;;;;;;3.80;1.80;;;12.50;99.90;;;;;;10373417;28;20199;-81
2023/01/05 02:01:57;;;;;;;1.60;1.60;;;12.40;99.90;;;;;;10366812;28;20249;-80
2023/01/05 02:07:01;;;;;;;1.50;1.50;;;12.40;99.90;;;;;;10375267;28;20187;-82
2023/01/05 02:12:23;;;;;;;1.50;1.50;;;12.40;99.90;;;;;;10381410;28;20218;-83
2023/01/05 02:17:37;;;;;;;1.60;1.60;;;12.50;99.90;;;;;;10383525;28;20206;-81
2023/01/05 02:23:31;;;;;;;1.63;1.63;;;12.50;99.90;;;;;;10379861;28;20214;-80
2023/01/05 02:28:57;;;;;;;1.93;1.83;;;12.50;99.90;;;;;;10302337;28;20214;-82
2023/01/05 02:34:11;;;;;;;1.70;1.60;;;12.50;99.90;;;;;;10394424;28;20221;-81
2023/01/05 02:39:16;;;;;;;1.67;1.57;;;12.50;99.90;;;;;;10385053;28;20237;-82
2023/01/05 02:44:20;;;;;;;1.97;1.87;;;12.50;99.90;;;;;;10383612;28;20655;-81
2023/01/05 02:49:31;;;;;;;1.67;1.67;;;12.60;99.90;;;;;;10381210;28;20298;-81
2023/01/05 02:54:43;;;;;;;1.53;1.53;;;12.50;99.90;;;;;;10384250;28;20219;-80
2023/01/05 02:59:52;;;;;;;1.50;1.50;;;12.50;99.90;;;;;;10369408;28;20253;-81
2023/01/05 03:05:05;;;;;;;1.67;1.60;;;12.50;99.90;;;;;;10367217;28;20198;-82
2023/01/05 03:15:33;;;;;;;2.30;1.90;;;12.50;99.90;;;;;;10374796;28;20690;-84
2023/01/05 03:20:43;;;;;;;1.50;1.50;;;12.50;99.90;;;;;;10371031;28;20222;-80
2023/01/05 03:36:51;;;;;;;1.70;1.60;;;12.60;99.90;;;;;;10372904;28;20667;-82
2023/01/05 03:41:54;;;;;;;1.60;1.60;;;12.50;99.90;;;;;;10376630;28;20250;-81
2023/01/05 03:47:03;;;;;;;1.67;1.67;;;12.60;99.90;;;;;;10361273;28;20529;-81
2023/01/05 03:52:07;;;;;;;1.77;1.77;;;12.60;99.90;;;;;;10375963;28;20257;-81
2023/01/05 03:57:09;;;;;;;1.80;1.70;;;12.60;99.90;;;;;;10380771;28;20217;-82
2023/01/05 04:02:11;;;;;;;1.80;1.70;;;12.70;99.90;;;;;;10387722;28;20207;-82
2023/01/05 04:07:15;;;;;;;1.60;1.50;;;12.70;99.90;;;;;;10376050;28;20567;-85
2023/01/05 04:12:17;;;;;;;1.93;1.93;;;12.70;99.90;;;;;;10374149;28;20300;-81
2023/01/05 04:17:27;;;;;;;1.70;1.70;;;12.80;99.90;;;;;;10359542;28;20183;-82
2023/01/05 04:22:36;;;;;;;2.00;2.00;;;12.80;99.90;;;;;;10361666;28;20210;-82
2023/01/05 04:27:38;;;;;;;1.83;1.80;;;12.80;99.90;;;;;;10386503;28;20228;-82
2023/01/05 04:32:41;;;;;;;2.30;2.20;;;12.80;99.90;;;;;;10374110;28;20223;-81
2023/01/05 04:37:49;;;;;;;1.80;1.80;;;12.80;99.90;;;;;;10361055;28;20198;-81
2023/01/05 04:42:51;;;;;;;1.90;1.90;;;12.90;99.90;;;;;;10378811;28;20219;-82
2023/01/05 04:47:54;;;;;;;1.70;1.70;;;12.90;99.90;;;;;;10378062;28;20677;-82
2023/01/05 04:52:59;;;;;;;2.03;2.00;;;12.90;99.90;;;;;;10379192;28;20288;-80
2023/01/05 04:58:04;;;;;;;1.77;1.70;;;12.90;99.90;;;;;;10384321;28;20205;-80
2023/01/05 05:03:07;;;;;;;2.07;1.97;;;12.90;99.90;;;;;;10371441;28;20214;-81
2023/01/05 05:08:11;;;;;;;2.10;2.10;;;12.90;99.90;;;;;;10375085;28;20674;-81
2023/01/05 05:13:17;;;;;;;2.10;2.10;;;13.00;99.90;;;;;;10350422;28;20231;-79
2023/01/05 05:18:20;;;;;;;2.23;2.13;;;12.90;99.90;;;;;;10370195;28;20198;-78
2023/01/05 05:23:25;;;;;;;2.40;2.30;;;12.90;99.90;;;;;;10353707;28;20215;-78
2023/01/05 05:28:28;;;;;;;2.20;2.20;;;13.00;99.90;;;;;;10369633;28;20617;-80
2023/01/05 05:33:30;;;;;;;1.57;1.57;;;13.00;99.90;;;;;;10371170;28;20687;-82
2023/01/05 05:38:34;;;;;;;2.03;2.03;;;13.00;99.90;;;;;;10379548;28;20258;-82
2023/01/05 05:43:36;;;;;;;2.23;2.13;;;13.00;99.90;;;;;;10389964;28;20241;-80
2023/01/05 05:48:38;;;;;;;2.30;2.20;;;13.00;99.90;;;;;;10374018;28;20187;-78
2023/01/05 05:53:41;;;;;;;2.80;2.70;;;12.90;99.90;;;;;;10376266;28;20222;-82
2023/01/05 05:58:44;;;;;;;3.20;3.10;;;12.80;99.90;;;;;;10375048;28;20194;-82
2023/01/05 06:03:46;;;;;;;3.30;3.20;;;12.70;99.90;;;;;;10381491;28;20214;-80
2023/01/05 06:08:49;;;;;;;3.70;3.40;;;12.60;99.90;;;;;;10379307;28;20714;-80
2023/01/05 06:13:51;;;;;;;3.37;3.27;;;12.50;99.90;;;;;;10383412;28;20273;-78
2023/01/05 06:18:53;;;;;;;4.00;3.90;;;12.40;99.90;;;;;;10389371;28;20203;-78
2023/01/05 06:23:56;;;;;;;4.90;4.80;;;12.30;99.90;;;;;;10390505;28;20194;-79
2023/01/05 06:28:59;;;;;;;5.43;5.33;;;12.20;99.90;;;;;;10381535;28;20714;-79
2023/01/05 06:34:01;;;;;;;6.30;6.00;;;12.10;99.90;;;;;;10374528;28;20261;-79
2023/01/05 06:39:04;;;;;;;7.90;7.50;;;12.00;99.90;;;;;;10373022;28;20201;-79
2023/01/05 06:44:06;;;;;;;5.80;5.60;;;12.00;99.90;;;;;;10376316;28;20667;-79
2023/01/05 06:49:11;;;;;;;8.70;8.40;;;11.90;99.90;;;;;;10376008;28;20210;-79
2023/01/05 06:54:14;;;;;;;9.17;8.87;;;11.90;99.90;;;;;;10373704;28;20211;-80
2023/01/05 06:59:16;;;;;;;9.00;8.60;;;11.90;99.90;;;;;;10382036;28;20222;-79
2023/01/05 07:04:18;;;;;;;8.63;8.07;;;11.90;99.90;;;;;;10390046;28;20222;-79
2023/01/05 07:09:22;;;;;;;8.60;8.30;;;11.90;99.90;;;;;;10389207;28;20534;-79
2023/01/05 07:14:24;;;;;;;9.57;9.07;;;11.90;99.90;;;;;;10369146;28;20226;-80
2023/01/05 07:19:26;;;;;;;9.63;9.03;;;11.90;99.90;;;;;;10389416;28;20558;-80
2023/01/05 07:24:29;;;;;;;10.00;9.30;;;11.90;99.90;;;;;;10378875;28;20211;-81
2023/01/05 07:29:31;;;;;;;6.87;6.47;;;11.80;99.90;;;;;;10367438;23;20305;-81
2023/01/05 07:34:33;;;;;;;9.30;8.70;;;11.80;99.90;;;;;;10322180;28;20675;-80
2023/01/05 07:39:37;;;;;;;8.70;8.10;;;11.70;99.90;;;;;;10323428;28;20195;-82
2023/01/05 07:44:39;;;;;;;9.13;8.30;;;11.70;99.90;;;;;;10343797;28;20234;-82
2023/01/05 07:49:41;;;;;;;8.20;7.80;;;11.70;99.90;;;;;;10340474;28;20211;-82
2023/01/05 07:54:45;;;;;;;7.67;7.17;;;11.60;99.90;;;;;;10305621;28;20306;-82
2023/01/05 07:59:47;;;;;;;6.57;6.20;;;11.70;99.90;;;;;;10322612;28;20219;-82
2023/01/05 08:04:49;;;;;;;7.07;6.77;;;11.70;99.90;;;;;;10322064;28;20290;-82
2023/01/05 08:15:11;;;;;;;6.90;6.30;;;11.70;99.90;;;;;;10323223;28;20217;-82
2023/01/05 08:20:13;;;;;;;7.00;5.70;;;11.80;99.90;;;;;;10361522;28;20195;-79
2023/01/05 08:25:17;;;;;;;5.90;5.40;;;11.80;99.90;;;;;;10364953;28;20221;-79
2023/01/05 08:30:19;;;;;;;7.23;5.70;;;11.80;99.90;;;;;;10360203;28;20227;-82
2023/01/05 08:35:21;;;;;;;6.60;6.00;;;11.90;99.90;;;;;;10338042;28;20227;-82
2023/01/05 08:40:25;;;;;;;6.90;6.30;;;11.90;99.90;;;;;;10322627;28;20219;-82
2023/01/05 08:45:27;;;;;;;6.13;5.73;;;12.00;99.90;;;;;;10321516;28;20198;-81
2023/01/05 08:50:29;;;;;;;7.10;6.50;;;12.10;99.90;;;;;;10340205;28;20725;-82
2023/01/05 08:55:33;;;;;;;6.47;5.97;;;12.20;99.90;;;;;;10321847;28;20254;-80
2023/01/05 09:00:35;;;;;;;4.37;3.83;;;12.30;99.90;;;;;;10307071;28;20306;-82
2023/01/05 09:05:37;;;;;;;4.20;3.80;;;12.30;99.90;;;;;;10341251;28;20656;-82
2023/01/05 09:10:40;;;;;;;6.33;4.03;;;12.40;99.90;;;;;;10325182;28;20643;-80
2023/01/05 09:15:42;;;;;;;11.60;4.07;;;12.40;99.90;;;;;;10336038;28;20310;-82
2023/01/05 09:20:44;;;;;;;6.90;3.90;;;12.40;99.90;;;;;;10295357;28;20230;-81
2023/01/05 09:25:48;;;;;;;6.47;3.87;;;12.40;99.90;;;;;;10318567;28;20199;-82
2023/01/05 09:30:50;;;;;;;9.43;3.67;;;12.40;99.90;;;;;;10319957;28;20235;-82
2023/01/05 09:35:55;;;;;;;6.30;3.13;;;12.50;99.90;;;;;;10319602;28;20250;-82
2023/01/05 09:41:05;;;;;;;7.40;3.60;;;12.50;99.90;;;;;;10325322;28;20306;-81
2023/01/05 09:46:13;;;;;;;9.97;3.30;;;12.50;99.90;;;;;;10315884;28;20223;-81
2023/01/05 09:51:15;;;;;;;14.57;4.57;;;12.50;99.90;;;;;;10259579;28;20216;-82
2023/01/05 09:56:28;;;;;;;11.93;3.33;;;12.50;99.90;;;;;;10313996;28;20654;-81
2023/01/05 10:01:32;;;;;;;7.43;3.70;;;12.60;99.90;;;;;;10292649;28;20614;-80
2023/01/05 10:06:39;;;;;;;11.77;3.70;;;12.60;99.90;;;;;;10314580;28;20195;-80
2023/01/05 10:17:14;;;;;;;6.47;2.73;;;12.80;99.90;;;;;;10300694;28;20223;-82
2023/01/05 10:22:32;;;;;;;11.23;3.00;;;12.80;99.90;;;;;;10299249;28;20215;-80
2023/01/05 10:27:39;;;;;;;6.17;2.97;;;12.90;99.90;;;;;;10314673;28;20659;-80
2023/01/05 10:32:55;;;;;;;5.97;3.47;;;12.90;99.90;;;;;;10317015;28;20218;-80
2023/01/05 10:38:06;;;;;;;6.10;2.77;;;13.00;99.90;;;;;;10322375;28;20197;-81
2023/01/05 10:43:41;;;;;;;7.30;3.23;;;13.00;99.90;;;;;;10339913;28;20203;-81
2023/01/05 10:48:43;;;;;;;9.40;3.67;;;13.00;99.90;;;;;;10323956;28;20199;-81
2023/01/05 10:53:45;;;;;;;16.20;4.83;;;13.10;99.90;;;;;;10314062;28;20219;-82
2023/01/05 10:58:49;;;;;;;10.10;3.60;;;13.10;99.90;;;;;;10329632;28;20227;-81
2023/01/05 11:03:55;;;;;;;8.90;3.90;;;13.20;99.90;;;;;;10329019;28;20691;-80
2023/01/05 11:09:06;;;;;;;11.00;2.97;;;13.20;99.90;;;;;;10328188;28;20546;-82
2023/01/05 11:14:16;;;;;;;10.57;3.43;;;13.20;99.90;;;;;;10338258;28;20234;-82
2023/01/05 11:19:21;;;;;;;6.47;3.47;;;13.20;99.90;;;;;;10329967;28;20898;-81
2023/01/05 11:24:28;;;;;;;10.30;3.30;;;13.30;99.90;;;;;;10312001;28;20678;-82
2023/01/05 11:29:32;;;;;;;11.90;3.30;;;13.20;99.90;;;;;;10328741;28;20206;-82
2023/01/05 11:34:41;;;;;;;8.13;3.40;;;13.20;99.90;;;;;;10328163;28;20287;-82
2023/01/05 11:39:51;;;;;;;11.43;4.20;;;13.20;99.90;;;;;;10336270;28;20709;-80
2023/01/05 11:44:57;;;;;;;9.30;4.30;;;13.20;99.90;;;;;;10328878;28;20202;-82
2023/01/05 11:50:03;;;;;;;7.80;4.17;;;13.30;99.90;;;;;;10327260;28;20231;-82
2023/01/05 11:55:30;;;;;;;8.50;4.10;;;13.30;99.90;;;;;;10329756;28;20238;-83
2023/01/05 12:00:43;;;;;;;6.03;4.00;;;13.40;99.90;;;;;;10317956;28;20227;-81
2023/01/05 12:05:50;;;;;;;7.00;4.00;;;13.30;99.90;;;;;;10336209;28;20180;-82
2023/01/05 12:11:02;;;;;;;12.53;4.60;;;13.40;99.90;;;;;;10360330;28;20211;-82
2023/01/05 12:16:30;;;;;;;10.07;4.80;;;13.40;99.90;;;;;;10326329;28;20207;-82
2023/01/05 12:21:37;;;;;;;8.07;4.50;;;13.40;99.90;;;;;;10338317;28;20225;-81
2023/01/05 12:26:46;;;;;;;10.87;4.60;;;13.50;99.90;;;;;;10358154;28;20223;-81
2023/01/05 12:32:10;;;;;;;12.47;4.40;;;13.50;99.90;;;;;;10338794;28;20222;-82
2023/01/05 12:37:24;;;;;;;7.23;3.70;;;13.60;99.90;;;;;;10337322;28;20294;-82
2023/01/05 12:42:48;;;;;;;54.00;33.50;;;13.60;99.90;;;;;;10329928;28;20219;-82
2023/01/05 12:47:58;;;;;;;11.13;6.50;;;13.50;99.90;;;;;;10360538;28;20622;-82
2023/01/05 12:53:10;;;;;;;10.70;4.67;;;13.60;99.90;;;;;;10312697;28;20207;-82
2023/01/05 12:58:16;;;;;;;12.00;5.00;;;13.50;99.90;;;;;;10334952;28;20195;-82
2023/01/05 13:03:26;;;;;;;10.07;4.20;;;13.50;99.90;;;;;;10343923;28;20695;-82
2023/01/05 13:08:37;;;;;;;10.70;4.43;;;13.60;99.90;;;;;;10336144;28;20282;-81
2023/01/05 13:13:45;;;;;;;9.33;4.50;;;13.50;99.90;;;;;;10332122;28;20810;-81
2023/01/05 13:18:53;;;;;;;11.70;4.67;;;13.60;99.90;;;;;;10334346;28;20195;-82
2023/01/05 13:23:59;;;;;;;8.33;4.40;;;13.60;99.90;;;;;;10324089;28;20218;-82
2023/01/05 13:29:02;;;;;;;8.87;3.87;;;13.70;99.90;;;;;;10305048;28;20199;-81
2023/01/05 13:34:46;;;;;;;11.60;4.00;;;13.70;99.90;;;;;;10377522;23;20305;-79
2023/01/05 13:40:03;;;;;;;10.50;3.80;;;13.70;99.90;;;;;;10358643;28;20206;-78
2023/01/05 13:45:31;;;;;;;10.73;3.40;;;13.60;99.90;;;;;;10365605;28;20198;-81
2023/01/05 13:50:51;;;;;;;9.30;4.40;;;13.60;99.90;;;;;;10377319;28;20612;-81
2023/01/05 13:55:59;;;;;;;11.37;4.43;;;13.50;99.90;;;;;;10366820;28;20226;-78
2023/01/05 14:01:13;;;;;;;9.17;3.90;;;13.50;99.90;;;;;;10370886;28;20202;-78
2023/01/05 14:06:23;;;;;;;8.90;4.40;;;13.50;99.90;;;;;;10394138;28;20198;-81
2023/01/05 14:11:28;;;;;;;7.23;4.07;;;13.40;99.90;;;;;;10382094;28;20581;-80
2023/01/05 14:16:57;;;;;;;10.60;4.50;;;13.30;99.90;;;;;;10383542;28;20565;-79
2023/01/05 14:22:31;;;;;;;11.13;4.63;;;13.30;99.90;;;;;;10381985;28;20210;-79
2023/01/05 14:28:12;;;;;;;11.83;7.87;;;13.20;99.90;;;;;;10375465;28;20221;-78
2023/01/05 14:33:18;;;;;;;13.43;4.93;;;13.30;99.90;;;;;;10378483;28;20222;-79
2023/01/05 14:38:24;;;;;;;13.83;4.73;;;13.30;99.90;;;;;;10381289;28;20654;-80
2023/01/05 14:43:30;;;;;;;13.63;4.73;;;13.20;99.90;;;;;;10379708;28;20226;-80
2023/01/05 14:48:36;;;;;;;11.20;4.53;;;13.20;99.90;;;;;;10383764;28;20221;-80
2023/01/05 14:53:47;;;;;;;10.03;5.00;;;13.20;99.90;;;;;;10378187;28;20217;-78
2023/01/05 14:59:01;;;;;;;8.97;4.47;;;13.20;99.90;;;;;;10372986;28;20667;-81
2023/01/05 15:04:07;;;;;;;7.53;4.10;;;13.20;99.90;;;;;;10384043;28;20207;-81
2023/01/05 15:09:41;;;;;;;12.40;4.73;;;13.20;99.90;;;;;;10368828;28;20546;-79
2023/01/05 15:15:05;;;;;;;11.03;4.57;;;13.20;99.90;;;;;;10376997;28;20222;-80
2023/01/05 15:20:36;;;;;;;13.10;6.53;;;13.20;99.90;;;;;;10387080;28;20222;-80
2023/01/05 15:26:06;;;;;;;12.63;4.03;;;13.20;99.90;;;;;;10357835;28;20207;-80
2023/01/05 15:31:22;;;;;;;14.37;5.03;;;13.10;99.90;;;;;;10381655;28;20233;-79
2023/01/05 15:36:30;;;;;;;11.10;4.87;;;13.10;99.90;;;;;;10374121;28;20214;-81
2023/01/05 15:41:33;;;;;;;15.90;5.90;;;13.10;99.90;;;;;;10372503;28;20589;-80
2023/01/05 15:46:35;;;;;;;9.20;4.40;;;13.10;99.90;;;;;;10372306;28;20201;-78
2023/01/05 15:51:37;;;;;;;6.97;4.10;;;13.10;99.90;;;;;;10372526;28;20215;-79
2023/01/05 15:56:41;;;;;;;12.53;5.73;;;13.00;99.90;;;;;;10371812;28;20658;-79
2023/01/05 16:01:43;;;;;;;8.63;4.83;;;13.00;99.90;;;;;;10376089;28;20300;-79
2023/01/05 16:06:47;;;;;;;9.57;4.53;;;13.00;99.90;;;;;;10377284;28;20206;-80
2023/01/05 16:11:53;;;;;;;9.80;3.73;;;13.00;99.90;;;;;;10376857;28;20769;-80
2023/01/05 16:17:01;;;;;;;10.50;5.07;;;12.90;99.90;;;;;;10361005;28;20322;-80
2023/01/05 16:22:06;;;;;;;8.53;4.60;;;12.90;99.90;;;;;;10377401;28;20276;-80
2023/01/05 16:27:13;;;;;;;11.60;5.30;;;12.90;99.90;;;;;;10377867;28;20186;-80
2023/01/05 16:32:28;;;;;;;6.17;4.20;;;12.90;99.90;;;;;;10380863;28;20236;-80
2023/01/05 16:37:30;;;;;;;13.10;4.80;;;12.90;99.90;;;;;;10382883;28;20289;-80
2023/01/05 16:42:44;;;;;;;8.50;4.20;;;12.90;99.90;;;;;;10387078;28;20270;-80
2023/01/05 16:47:47;;;;;;;9.60;5.10;;;12.90;99.90;;;;;;10383369;28;20560;-80
2023/01/05 16:52:52;;;;;;;8.10;4.43;;;12.90;99.90;;;;;;10380486;28;20621;-80
2023/01/05 16:57:56;;;;;;;11.40;4.67;;;12.90;99.90;;;;;;10381651;28;20210;-80
2023/01/05 17:02:59;;;;;;;11.60;5.23;;;12.90;99.90;;;;;;10377532;28;20222;-80
2023/01/05 17:08:06;;;;;;;13.10;5.97;;;12.80;99.90;;;;;;10382658;28;20194;-81
2023/01/05 17:13:14;;;;;;;12.27;5.20;;;12.80;99.90;;;;;;10378750;28;20234;-80
2023/01/05 17:18:20;;;;;;;8.00;4.70;;;12.80;99.90;;;;;;10370753;28;20216;-79
2023/01/05 17:23:25;;;;;;;11.13;6.73;;;12.80;99.90;;;;;;10396642;28;20212;-82
2023/01/05 17:28:28;;;;;;;7.37;6.20;;;12.80;99.90;;;;;;10381375;28;20229;-81
2023/01/05 17:33:30;;;;;;;10.97;4.43;;;12.80;99.90;;;;;;10381798;28;20222;-82
2023/01/05 17:38:32;;;;;;;7.00;3.23;;;12.80;99.90;;;;;;10380349;28;20442;-82
2023/01/05 17:43:36;;;;;;;11.20;4.50;;;12.80;99.90;;;;;;10384142;28;20214;-80
2023/01/05 17:48:38;;;;;;;13.70;4.80;;;12.70;99.90;;;;;;10395055;28;20209;-81
2023/01/05 17:53:40;;;;;;;9.53;5.47;;;12.70;99.90;;;;;;10378599;28;20297;-81
2023/01/05 17:58:44;;;;;;;8.70;5.27;;;12.70;99.90;;;;;;10376677;28;20190;-81
2023/01/05 18:03:46;;;;;;;8.17;5.40;;;12.60;99.90;;;;;;10380085;28;20400;-81
2023/01/05 18:08:48;;;;;;;11.07;5.07;;;12.60;99.90;;;;;;10386440;28;20225;-81
2023/01/05 18:13:52;;;;;;;22.53;14.40;;;12.60;99.90;;;;;;10380970;28;20217;-81
2023/01/05 18:18:54;;;;;;;10.33;6.03;;;12.50;99.90;;;;;;10368045;28;20265;-81
2023/01/05 18:23:56;;;;;;;8.00;7.20;;;12.50;99.90;;;;;;10378467;28;20256;-79
2023/01/05 18:28:59;;;;;;;9.47;4.80;;;12.40;99.90;;;;;;10379031;28;20733;-81
2023/01/05 18:34:01;;;;;;;7.30;4.57;;;12.40;99.90;;;;;;10385520;28;20269;-81
2023/01/05 18:39:05;;;;;;;5.43;4.53;;;12.40;99.90;;;;;;10372033;28;20198;-79
2023/01/05 18:44:09;;;;;;;6.70;5.17;;;12.40;99.90;;;;;;10372460;28;20269;-80
2023/01/05 18:49:11;;;;;;;11.00;9.80;;;12.40;99.90;;;;;;10371302;28;20195;-80
2023/01/05 18:54:13;;;;;;;7.00;4.60;;;12.50;99.90;;;;;;10379248;28;20345;-80
2023/01/05 18:59:17;;;;;;;6.33;4.60;;;12.50;99.90;;;;;;10381922;28;20194;-79
2023/01/05 19:04:19;;;;;;;6.10;4.00;;;12.60;99.90;;;;;;10383049;28;20214;-80
2023/01/05 19:09:21;;;;;;;3.80;3.50;;;12.60;99.90;;;;;;10383616;28;20309;-80
2023/01/05 19:14:25;;;;;;;4.40;3.30;;;12.60;99.90;;;;;;10384460;28;20222;-81
2023/01/05 19:19:27;;;;;;;9.33;4.33;;;12.70;99.90;;;;;;10385223;28;20247;-80
2023/01/05 19:24:30;;;;;;;8.80;5.73;;;12.60;99.90;;;;;;10382562;28;20211;-81
2023/01/05 19:29:34;;;;;;;3.97;3.67;;;12.60;99.90;;;;;;10384630;28;20205;-81
2023/01/05 19:34:36;;;;;;;7.83;3.93;;;12.60;99.90;;;;;;10444406;23;20261;-83
2023/01/05 19:39:38;;;;;;;4.40;3.57;;;12.60;99.90;;;;;;10404069;28;20252;-83
2023/01/05 19:44:43;;;;;;;6.00;5.40;;;12.60;99.90;;;;;;10376613;28;20229;-81
2023/01/05 19:49:45;;;;;;;4.07;3.63;;;12.50;99.90;;;;;;10416073;28;20194;-81
2023/01/05 19:54:48;;;;;;;4.07;3.20;;;12.50;99.90;;;;;;10389473;28;20214;-81
2023/01/05 19:59:51;;;;;;;3.47;3.23;;;12.50;99.90;;;;;;10368028;28;20293;-82
2023/01/05 20:04:54;;;;;;;7.10;3.53;;;12.50;99.90;;;;;;10390850;28;20253;-82
2023/01/05 20:09:57;;;;;;;5.23;3.53;;;12.50;99.90;;;;;;10378670;28;20199;-82
2023/01/05 20:15:00;;;;;;;4.30;3.00;;;12.50;99.90;;;;;;10389090;28;20201;-82
2023/01/05 20:20:02;;;;;;;3.67;3.13;;;12.60;99.90;;;;;;10372149;28;20203;-82
2023/01/05 20:25:06;;;;;;;3.80;3.10;;;12.60;99.90;;;;;;10383691;28;20309;-82
2023/01/05 20:30:11;;;;;;;3.17;2.97;;;12.60;99.90;;;;;;10365443;28;20210;-82
2023/01/05 20:35:14;;;;;;;3.00;2.87;;;12.60;99.90;;;;;;10364500;28;20202;-82
2023/01/05 20:40:16;;;;;;;3.87;3.57;;;12.60;99.90;;;;;;10354376;28;20222;-81
2023/01/05 20:45:19;;;;;;;3.67;3.47;;;12.60;99.90;;;;;;10379278;28;20233;-82
2023/01/05 20:50:24;;;;;;;5.43;4.90;;;12.70;99.90;;;;;;10369020;28;20218;-82
2023/01/05 20:55:26;;;;;;;4.80;4.40;;;12.70;99.90;;;;;;10391704;28;20199;-81
2023/01/05 21:00:34;;;;;;;4.63;4.23;;;12.70;99.90;;;;;;10387035;28;20753;-82
2023/01/05 21:05:38;;;;;;;6.10;4.73;;;12.70;99.90;;;;;;10378714;28;20226;-83
2023/01/05 21:10:43;;;;;;;5.03;4.63;;;12.70;99.90;;;;;;10371985;28;20586;-82
2023/01/05 21:15:55;;;;;;;3.13;3.03;;;12.70;99.90;;;;;;10372239;28;20212;-82
2023/01/05 21:20:57;;;;;;;2.93;2.83;;;12.60;99.90;;;;;;10374116;28;20494;-81
2023/01/05 21:25:59;;;;;;;4.60;4.20;;;12.60;99.90;;;;;;10411944;28;20233;-82
2023/01/05 21:31:04;;;;;;;4.23;3.93;;;12.60;99.90;;;;;;10398018;28;20234;-82
2023/01/05 21:36:07;;;;;;;4.03;3.73;;;12.60;99.90;;;;;;10394421;28;20569;-83
2023/01/05 21:41:12;;;;;;;3.13;3.03;;;12.50;99.90;;;;;;10377541;28;20222;-82
2023/01/05 21:46:15;;;;;;;3.63;3.43;;;12.40;99.90;;;;;;10402374;28;20214;-82
2023/01/05 21:56:40;;;;;;;4.80;4.50;;;12.20;99.90;;;;;;10398125;28;20198;-81
2023/01/05 22:01:44;;;;;;;6.20;5.80;;;12.00;99.90;;;;;;10390922;28;20219;-82
2023/01/05 22:06:47;;;;;;;4.30;4.10;;;12.00;99.90;;;;;;10407522;28;20225;-81
2023/01/05 22:11:49;;;;;;;4.53;4.23;;;11.90;99.90;;;;;;10368206;28;20225;-82
2023/01/05 22:16:53;;;;;;;3.53;3.30;;;11.90;99.90;;;;;;10366265;28;20234;-82
2023/01/05 22:21:55;;;;;;;3.20;3.10;;;11.90;99.90;;;;;;10387093;28;20238;-82
2023/01/05 22:26:57;;;;;;;3.30;3.10;;;12.00;99.90;;;;;;10379030;28;20218;-82
2023/01/05 22:32:00;;;;;;;3.10;2.90;;;12.00;99.90;;;;;;10425666;28;20329;-82
2023/01/05 22:37:02;;;;;;;3.00;2.80;;;12.10;99.90;;;;;;10390494;28;20205;-83
2023/01/05 22:42:04;;;;;;;3.00;2.90;;;12.20;99.90;;;;;;10412673;28;20569;-83
2023/01/05 22:47:08;;;;;;;3.10;3.00;;;12.20;99.90;;;;;;10396127;28;20210;-82
2023/01/05 22:52:10;;;;;;;3.50;3.30;;;12.40;99.90;;;;;;10417386;28;20219;-81
2023/01/05 22:57:12;;;;;;;2.83;2.70;;;12.40;99.90;;;;;;10412532;28;20195;-82
2023/01/05 23:02:16;;;;;;;2.90;2.70;;;12.50;99.90;;;;;;10387236;28;20237;-81
2023/01/05 23:07:21;;;;;;;2.50;2.40;;;12.50;99.90;;;;;;10416758;28;20250;-81
2023/01/05 23:12:23;;;;;;;2.80;2.60;;;12.60;99.90;;;;;;10410304;28;20221;-83
2023/01/05 23:17:27;;;;;;;2.90;2.70;;;12.60;99.90;;;;;;10398980;28;20201;-82
2023/01/05 23:22:29;;;;;;;3.00;2.90;;;12.60;99.90;;;;;;10382200;28;20631;-82
2023/01/05 23:27:31;;;;;;;2.90;2.80;;;12.60;99.90;;;;;;10409526;28;20249;-82
2023/01/05 23:32:35;;;;;;;2.93;2.80;;;12.60;99.90;;;;;;10383989;28;20261;-82
2023/01/05 23:37:37;;;;;;;3.20;3.00;;;12.50;99.90;;;;;;10410579;28;20198;-81
2023/01/05 23:42:45;;;;;;;3.10;2.90;;;12.50;99.90;;;;;;10413670;28;20231;-82
2023/01/05 23:47:48;;;;;;;3.03;2.83;;;12.50;99.90;;;;;;10408688;28;20217;-82
2023/01/05 23:52:50;;;;;;;3.43;3.20;;;12.50;99.90;;;;;;10408691;28;20222;-81
2023/01/05 23:57:53;;;;;;;3.10;2.90;;;12.50;99.90;;;;;;10382358;28;20273;-81
